createdAt,value
2022-10-19T00:02:05.801Z,99569.38
2022-10-19T00:04:32.428Z,99570.31
2022-10-19T00:06:59.177Z,99571.22
2022-10-19T00:09:25.916Z,99571.22
2022-10-19T00:11:52.608Z,99565.09
2022-10-19T00:14:23.086Z,99566.81
2022-10-19T00:16:51.939Z,99564.22
2022-10-19T00:19:22.053Z,99563.28
2022-10-19T00:24:15.594Z,99566.81
2022-10-19T00:26:42.382Z,99565.97
2022-10-19T00:29:11.151Z,99560.78
2022-10-19T00:31:37.815Z,99556.44
2022-10-19T00:34:04.510Z,99559.00
2022-10-19T00:36:39.684Z,99558.13
2022-10-19T00:39:10.641Z,99551.97
2022-10-19T00:41:38.228Z,99546.78
2022-10-19T00:44:25.017Z,99550.25
2022-10-19T00:46:53.294Z,99544.16
2022-10-19T00:49:36.055Z,99546.78
2022-10-19T00:52:16.520Z,99551.19
2022-10-19T00:54:44.667Z,99552.94
2022-10-19T00:57:12.293Z,99552.94
2022-10-19T00:59:42.066Z,99545.06
2022-10-19T01:02:08.823Z,99548.56
2022-10-19T01:04:44.690Z,99554.72
2022-10-19T01:07:11.924Z,99553.88
2022-10-19T01:09:38.595Z,99553.00
2022-10-19T01:12:08.393Z,99559.97
2022-10-19T01:15:00.004Z,99553.84
2022-10-19T01:17:48.040Z,99557.34
2022-10-19T01:20:46.645Z,99560.00
2022-10-19T01:23:40.212Z,99553.00
2022-10-19T01:26:48.239Z,99552.13
2022-10-19T01:29:26.943Z,99550.38
2022-10-19T01:32:11.921Z,99546.91
2022-10-19T01:34:51.862Z,99556.53
2022-10-19T01:37:33.843Z,99555.63
2022-10-19T01:40:10.665Z,99552.13
2022-10-19T01:42:37.166Z,99560.03
2022-10-19T01:45:26.333Z,99559.13
2022-10-19T01:47:59.785Z,99558.25
2022-10-19T01:50:41.160Z,99559.13
2022-10-19T01:53:11.044Z,99559.09
2022-10-19T01:55:41.264Z,99548.59
2022-10-19T01:58:14.133Z,99548.63
2022-10-19T02:00:45.307Z,99552.97
2022-10-19T02:03:13.764Z,99545.97
2022-10-19T02:05:41.875Z,99542.50
2022-10-19T02:08:13.988Z,99532.91
2022-10-19T02:10:43.757Z,99531.16
2022-10-19T02:13:12.321Z,99524.16
2022-10-19T02:15:43.875Z,99532.94
2022-10-19T02:18:14.439Z,99528.56
2022-10-19T02:20:41.068Z,99535.53
2022-10-19T02:23:08.416Z,99532.06
2022-10-19T02:25:35.309Z,99520.69
2022-10-19T02:28:05.447Z,99516.31
2022-10-19T02:30:32.399Z,99512.81
2022-10-19T02:32:59.060Z,99506.69
2022-10-19T02:35:25.993Z,99503.22
2022-10-19T02:37:52.559Z,99500.59
2022-10-19T02:40:19.400Z,99508.47
2022-10-19T02:42:55.530Z,99500.56
2022-10-19T02:45:27.081Z,99502.34
2022-10-19T02:47:59.405Z,99513.69
2022-10-19T02:50:27.453Z,99510.19
2022-10-19T02:52:54.113Z,99514.53
2022-10-19T02:55:20.770Z,99510.19
2022-10-19T02:57:47.384Z,99508.44
2022-10-19T03:00:14.055Z,99515.38
2022-10-19T03:02:40.704Z,99517.09
2022-10-19T03:05:07.852Z,99517.09
2022-10-19T03:07:34.867Z,99514.44
2022-10-19T03:10:01.809Z,99512.66
2022-10-19T03:12:28.430Z,99508.28
2022-10-19T03:14:55.049Z,99503.03
2022-10-19T03:17:21.607Z,99507.34
2022-10-19T03:19:48.199Z,99508.19
2022-10-19T03:22:17.706Z,99498.56
2022-10-19T03:24:44.265Z,99502.03
2022-10-19T03:27:10.930Z,99505.47
2022-10-19T03:29:37.509Z,99512.38
2022-10-19T03:32:04.507Z,99519.34
2022-10-19T03:34:31.227Z,99515.88
2022-10-19T03:36:59.339Z,99530.69
2022-10-19T03:39:26.582Z,99535.03
2022-10-19T03:41:53.279Z,99538.47
2022-10-19T03:44:20.123Z,99544.53
2022-10-19T03:46:46.830Z,99545.34
2022-10-19T03:49:15.065Z,99544.41
2022-10-19T03:51:41.819Z,99550.56
2022-10-19T03:54:13.655Z,99569.69
2022-10-19T03:56:40.992Z,99568.75
2022-10-19T03:59:07.619Z,99577.47
2022-10-19T04:01:40.360Z,99576.66
2022-10-19T04:04:11.294Z,99567.06
2022-10-19T04:06:40.485Z,99585.38
2022-10-19T04:09:09.298Z,99584.56
2022-10-19T04:11:36.512Z,99571.56
2022-10-19T04:14:03.370Z,99584.69
2022-10-19T04:16:31.455Z,99581.25
2022-10-19T04:18:58.879Z,99590.03
2022-10-19T04:21:31.349Z,99579.63
2022-10-19T04:24:01.708Z,99577.00
2022-10-19T04:26:28.704Z,99583.97
2022-10-19T04:28:58.780Z,99580.53
2022-10-19T04:31:26.211Z,99583.16
2022-10-19T04:33:52.836Z,99583.16
2022-10-19T04:36:19.763Z,99587.56
2022-10-19T04:38:46.390Z,99591.03
2022-10-19T04:41:15.496Z,99585.81
2022-10-19T04:43:42.136Z,99580.63
2022-10-19T04:46:14.761Z,99592.00
2022-10-19T04:48:42.281Z,99582.47
2022-10-19T04:51:10.036Z,99591.25
2022-10-19T04:53:38.961Z,99591.28
2022-10-19T04:56:08.541Z,99594.81
2022-10-19T04:58:35.804Z,99590.44
2022-10-19T05:01:09.734Z,99587.91
2022-10-19T05:03:36.627Z,99586.16
2022-10-19T05:06:04.124Z,99589.66
2022-10-19T05:08:31.163Z,99588.81
2022-10-19T05:11:09.496Z,99589.69
2022-10-19T05:13:36.484Z,99583.56
2022-10-19T05:16:05.173Z,99581.81
2022-10-19T05:18:32.199Z,99588.81
2022-10-19T05:21:06.733Z,99584.44
2022-10-19T05:23:33.862Z,99574.84
2022-10-19T05:26:18.203Z,99576.59
2022-10-19T05:28:49.700Z,99584.44
2022-10-19T05:31:19.613Z,99582.69
2022-10-19T05:33:46.700Z,99585.31
2022-10-19T05:36:15.195Z,99580.06
2022-10-19T05:38:43.392Z,99580.06
2022-10-19T05:41:10.629Z,99584.44
2022-10-19T05:43:37.449Z,99583.56
2022-10-19T05:46:09.430Z,99591.41
2022-10-19T05:48:36.768Z,99579.16
2022-10-19T05:51:05.437Z,99584.41
2022-10-19T05:53:32.993Z,99586.09
2022-10-19T05:55:59.733Z,99587.81
2022-10-19T05:58:26.929Z,99592.16
2022-10-19T06:00:58.726Z,99594.75
2022-10-19T06:03:26.555Z,99597.31
2022-10-19T06:05:54.118Z,99602.53
2022-10-19T06:08:22.712Z,99596.41
2022-10-19T06:10:50.998Z,99612.94
2022-10-19T06:13:19.071Z,99604.22
2022-10-19T06:15:49.889Z,99602.53
2022-10-19T06:18:16.516Z,99596.41
2022-10-19T06:20:43.298Z,99607.75
2022-10-19T06:23:09.992Z,99600.81
2022-10-19T06:25:37.924Z,99606.97
2022-10-19T06:28:04.708Z,99608.78
2022-10-19T06:30:31.422Z,99612.28
2022-10-19T06:32:59.690Z,99616.72
2022-10-19T06:35:26.816Z,99609.75
2022-10-19T06:37:56.470Z,99612.38
2022-10-19T06:40:23.608Z,99614.13
2022-10-19T06:42:50.694Z,99618.50
2022-10-19T06:45:17.549Z,99617.66
2022-10-19T06:47:44.228Z,99622.88
2022-10-19T06:50:12.172Z,99619.44
2022-10-19T06:52:40.851Z,99621.19
2022-10-19T06:55:08.147Z,99615.94
2022-10-19T06:57:35.452Z,99619.44
2022-10-19T07:00:02.532Z,99623.81
2022-10-19T07:02:29.285Z,99626.44
2022-10-19T07:04:55.925Z,99626.44
2022-10-19T07:07:22.523Z,99626.47
2022-10-19T07:09:49.204Z,99632.56
2022-10-19T07:12:15.938Z,99632.56
2022-10-19T07:14:42.607Z,99641.34
2022-10-19T07:17:12.056Z,99640.44
2022-10-19T07:19:38.852Z,99635.22
2022-10-19T07:22:05.500Z,99635.19
2022-10-19T07:24:32.161Z,99632.53
2022-10-19T07:26:58.928Z,99642.16
2022-10-19T07:29:25.536Z,99642.16
2022-10-19T07:31:52.268Z,99635.13
2022-10-19T07:34:18.869Z,99626.34
2022-10-19T07:36:48.285Z,99635.91
2022-10-19T07:39:17.171Z,99631.53
2022-10-19T07:41:44.714Z,99633.25
2022-10-19T07:44:14.844Z,99634.97
2022-10-19T07:46:42.815Z,99634.00
2022-10-19T07:49:13.910Z,99627.84
2022-10-19T07:51:40.558Z,99633.00
2022-10-19T07:54:07.261Z,99632.94
2022-10-19T07:56:35.558Z,99636.41
2022-10-19T07:59:02.938Z,99631.91
2022-10-19T08:01:32.208Z,99643.19
2022-10-19T08:06:46.646Z,99642.25
2022-10-19T08:09:27.801Z,99640.50
2022-10-19T08:11:59.912Z,99635.22
2022-10-19T08:14:26.589Z,99638.72
2022-10-19T08:16:53.258Z,99643.19
2022-10-19T08:19:19.933Z,99643.09
2022-10-19T08:21:47.512Z,99642.09
2022-10-19T08:24:31.368Z,99637.56
2022-10-19T08:26:57.950Z,99649.72
2022-10-19T08:29:26.570Z,99642.34
2022-10-19T08:31:55.693Z,99640.44
2022-10-19T08:34:22.267Z,99646.34
2022-10-19T08:36:48.996Z,99634.72
2022-10-19T08:39:17.866Z,99638.25
2022-10-19T08:42:05.754Z,99630.44
2022-10-19T08:45:00.421Z,99634.50
2022-10-19T08:47:53.291Z,99639.00
2022-10-19T08:50:24.498Z,99633.78
2022-10-19T08:53:16.807Z,99634.66
2022-10-19T08:56:05.693Z,99638.75
2022-10-19T08:58:57.039Z,99637.22
2022-10-19T09:01:54.510Z,99638.84
2022-10-19T09:04:29.235Z,99630.69
2022-10-19T09:07:45.120Z,99634.84
2022-10-19T09:10:14.866Z,99634.25
2022-10-19T09:12:58.715Z,99625.56
2022-10-19T09:15:38.641Z,99627.03
2022-10-19T09:18:11.020Z,99627.19
2022-10-19T09:20:41.500Z,99631.03
2022-10-19T09:23:34.425Z,99616.59
2022-10-19T09:26:01.124Z,99620.50
2022-10-19T09:28:39.664Z,99615.75
2022-10-19T09:31:14.971Z,99613.63
2022-10-19T09:33:43.336Z,99607.41
2022-10-19T09:36:18.200Z,99605.97
2022-10-19T09:38:50.358Z,99612.47
2022-10-19T09:41:19.433Z,99612.88
2022-10-19T09:43:53.635Z,99613.66
2022-10-19T09:46:52.315Z,99615.59
2022-10-19T09:49:38.070Z,99621.66
2022-10-19T09:52:04.825Z,99625.22
2022-10-19T09:54:40.777Z,99622.16
2022-10-19T09:57:07.545Z,99617.94
2022-10-19T09:59:36.975Z,99621.44
2022-10-19T10:02:06.273Z,99619.34
2022-10-19T10:04:36.541Z,99617.19
2022-10-19T10:07:04.265Z,99611.53
2022-10-19T10:09:31.294Z,99620.06
2022-10-19T10:12:00.333Z,99617.50
2022-10-19T10:14:34.027Z,99622.88
2022-10-19T10:17:07.228Z,99619.34
2022-10-19T10:19:36.205Z,99618.78
2022-10-19T10:22:04.333Z,99632.00
2022-10-19T10:24:32.862Z,99626.16
2022-10-19T10:27:05.754Z,99627.22
2022-10-19T10:29:37.863Z,99618.75
2022-10-19T10:32:20.038Z,99618.84
2022-10-19T10:35:01.540Z,99618.06
2022-10-19T10:37:39.433Z,99620.72
2022-10-19T10:40:08.344Z,99623.94
2022-10-19T10:42:41.481Z,99617.72
2022-10-19T10:45:31.292Z,99622.25
2022-10-19T10:48:00.056Z,99623.88
2022-10-19T10:50:34.151Z,99620.09
2022-10-19T10:53:03.511Z,99614.13
2022-10-19T10:55:31.692Z,99624.66
2022-10-19T10:58:15.712Z,99620.41
2022-10-19T11:00:44.178Z,99608.88
2022-10-19T11:03:25.378Z,99616.88
2022-10-19T11:05:57.469Z,99602.78
2022-10-19T11:08:59.953Z,99598.19
2022-10-19T11:11:40.062Z,99591.91
2022-10-19T11:14:25.325Z,99599.66
2022-10-19T11:16:54.932Z,99597.91
2022-10-19T11:19:36.877Z,99590.88
2022-10-19T11:22:34.616Z,99596.31
2022-10-19T11:25:25.266Z,99590.97
2022-10-19T11:28:12.776Z,99585.31
2022-10-19T11:31:14.560Z,99579.28
2022-10-19T11:33:55.496Z,99571.34
2022-10-19T11:36:54.507Z,99575.78
2022-10-19T11:39:42.970Z,99566.19
2022-10-19T11:42:18.919Z,99568.09
2022-10-19T11:44:51.586Z,99563.63
2022-10-19T11:47:29.848Z,99564.50
2022-10-19T11:50:15.645Z,99565.22
2022-10-19T11:52:50.312Z,99558.03
2022-10-19T11:55:27.374Z,99557.03
2022-10-19T11:58:08.627Z,99549.75
2022-10-19T12:00:48.833Z,99543.78
2022-10-19T12:03:48.023Z,99539.97
2022-10-19T12:06:28.631Z,99541.47
2022-10-19T12:09:20.777Z,99530.72
2022-10-19T12:12:16.512Z,99529.97
2022-10-19T12:14:47.115Z,99532.66
2022-10-19T12:17:33.206Z,99532.59
2022-10-19T12:20:05.335Z,99524.19
2022-10-19T12:22:34.859Z,99525.19
2022-10-19T12:25:02.119Z,99520.00
2022-10-19T12:27:37.148Z,99518.44
2022-10-19T12:30:24.515Z,99519.25
2022-10-19T12:33:07.152Z,99518.22
2022-10-19T12:35:48.045Z,99511.63
2022-10-19T12:38:23.456Z,99516.06
2022-10-19T12:41:00.566Z,99512.25
2022-10-19T12:43:41.514Z,99509.03
2022-10-19T12:46:23.208Z,99504.06
2022-10-19T12:49:27.210Z,99502.28
2022-10-19T12:51:58.946Z,99500.03
2022-10-19T12:54:36.975Z,99508.41
2022-10-19T12:57:22.830Z,99499.28
2022-10-19T13:00:00.049Z,99500.91
2022-10-19T13:04:58.495Z,99499.84
2022-10-19T13:07:27.011Z,99501.88
2022-10-19T13:10:02.176Z,99502.94
2022-10-19T13:12:40.966Z,99505.06
2022-10-19T13:15:36.540Z,99498.88
2022-10-19T13:18:16.984Z,99497.66
2022-10-19T13:20:54.032Z,99491.50
2022-10-19T13:23:26.640Z,99493.25
2022-10-19T13:26:31.299Z,99480.00
2022-10-19T13:28:57.956Z,99488.16
2022-10-19T13:31:27.671Z,99479.50
2022-10-19T13:33:55.331Z,99486.06
2022-10-19T13:36:23.008Z,99471.66
2022-10-19T13:38:58.760Z,99479.59
2022-10-19T13:41:44.543Z,99487.56
2022-10-19T13:44:14.500Z,99488.31
2022-10-19T13:46:53.465Z,99481.41
2022-10-19T13:49:35.210Z,99485.13
2022-10-19T13:52:26.801Z,99491.13
2022-10-19T13:55:05.555Z,99487.59
2022-10-19T13:57:55.353Z,99483.22
2022-10-19T14:00:56.540Z,99483.22
2022-10-19T14:03:38.084Z,99484.38
2022-10-19T14:06:15.792Z,99482.03
2022-10-19T14:08:48.339Z,99474.22
2022-10-19T14:11:17.263Z,99467.88
2022-10-19T14:13:44.209Z,99464.50
2022-10-19T14:16:21.891Z,99464.72
2022-10-19T14:18:56.526Z,99461.25
2022-10-19T14:21:35.653Z,99457.09
2022-10-19T14:24:02.745Z,99456.97
2022-10-19T14:26:31.236Z,99459.66
2022-10-19T14:28:59.764Z,99457.91
2022-10-19T14:31:40.050Z,99458.81
2022-10-19T14:34:09.506Z,99455.53
2022-10-19T14:36:48.632Z,99451.97
2022-10-19T14:39:35.417Z,99453.84
2022-10-19T14:42:09.354Z,99452.84
2022-10-19T14:44:40.000Z,99453.94
2022-10-19T14:47:30.546Z,99446.00
2022-10-19T14:49:57.520Z,99450.47
2022-10-19T14:52:30.093Z,99445.28
2022-10-19T14:54:57.394Z,99443.44
2022-10-19T14:57:31.979Z,99440.69
2022-10-19T15:00:03.597Z,99437.34
2022-10-19T15:02:52.983Z,99441.00
2022-10-19T15:05:23.819Z,99439.44
2022-10-19T15:07:51.303Z,99436.13
2022-10-19T15:10:23.283Z,99436.31
2022-10-19T15:12:52.087Z,99433.63
2022-10-19T15:15:24.975Z,99437.22
2022-10-19T15:18:01.716Z,99432.03
2022-10-19T15:20:30.350Z,99440.69
2022-10-19T15:22:58.709Z,99436.47
2022-10-19T15:25:36.376Z,99440.00
2022-10-19T15:28:40.591Z,99430.38
2022-10-19T15:31:24.096Z,99425.16
2022-10-19T15:33:59.689Z,99425.22
2022-10-19T15:36:27.736Z,99431.41
2022-10-19T15:39:18.227Z,99435.91
2022-10-19T15:41:52.164Z,99431.69
2022-10-19T15:44:42.365Z,99434.28
2022-10-19T15:47:14.730Z,99428.22
2022-10-19T15:49:41.499Z,99435.28
2022-10-19T15:52:16.113Z,99428.34
2022-10-19T15:54:43.047Z,99434.50
2022-10-19T15:57:24.649Z,99428.41
2022-10-19T15:59:51.355Z,99424.97
2022-10-19T16:02:18.208Z,99433.78
2022-10-19T16:04:48.698Z,99430.28
2022-10-19T16:07:20.027Z,99427.66
2022-10-19T16:09:46.586Z,99424.19
2022-10-19T16:12:13.093Z,99430.41
2022-10-19T16:14:39.611Z,99435.63
2022-10-19T16:17:06.120Z,99434.78
2022-10-19T16:19:32.697Z,99429.56
2022-10-19T16:21:59.234Z,99433.09
2022-10-19T16:24:25.897Z,99428.78
2022-10-19T16:26:52.372Z,99433.16
2022-10-19T16:29:18.905Z,99432.31
2022-10-19T16:31:45.380Z,99431.44
2022-10-19T16:34:11.891Z,99432.31
2022-10-19T16:36:38.447Z,99430.63
2022-10-19T16:39:05.114Z,99430.63
2022-10-19T16:41:31.802Z,99421.03
2022-10-19T16:43:58.458Z,99433.31
2022-10-19T16:46:25.238Z,99427.22
2022-10-19T16:48:52.403Z,99428.97
2022-10-19T16:51:29.018Z,99428.09
2022-10-19T16:53:57.556Z,99430.72
2022-10-19T16:56:25.762Z,99427.22
2022-10-19T16:58:57.382Z,99435.97
2022-10-19T17:01:24.067Z,99435.06
2022-10-19T17:03:50.632Z,99430.72
2022-10-19T17:06:18.365Z,99429.84
2022-10-19T17:09:14.661Z,99432.44
2022-10-19T17:11:34.584Z,99427.19
2022-10-19T17:14:04.480Z,99435.03
2022-10-19T17:16:33.112Z,99435.03
2022-10-19T17:19:01.464Z,99424.53
2022-10-19T17:21:30.436Z,99428.03
2022-10-19T17:24:00.015Z,99435.00
2022-10-19T17:26:28.486Z,99430.66
2022-10-19T17:28:56.140Z,99429.78
2022-10-19T17:31:23.541Z,99432.41
2022-10-19T17:33:50.114Z,99435.00
2022-10-19T17:36:20.109Z,99428.00
2022-10-19T17:38:46.764Z,99434.09
2022-10-19T17:41:16.354Z,99434.13
2022-10-19T17:43:44.542Z,99434.97
2022-10-19T17:46:13.335Z,99434.09
2022-10-19T17:48:41.635Z,99431.50
2022-10-19T17:51:12.783Z,99434.97
2022-10-19T17:53:39.432Z,99439.31
2022-10-19T17:56:07.556Z,99441.94
2022-10-19T17:58:39.057Z,99434.97
2022-10-19T18:01:07.852Z,99434.06
2022-10-19T18:03:35.995Z,99430.50
2022-10-19T18:06:11.460Z,99436.59
2022-10-19T18:08:40.718Z,99433.13
2022-10-19T18:11:12.116Z,99434.00
2022-10-19T18:13:39.583Z,99436.59
2022-10-19T18:16:20.734Z,99429.63
2022-10-19T18:18:48.982Z,99426.19
2022-10-19T18:21:18.096Z,99437.53
2022-10-19T18:23:45.258Z,99434.06
2022-10-19T18:26:15.657Z,99432.31
2022-10-19T18:28:43.036Z,99440.19
2022-10-19T18:31:15.405Z,99430.56
2022-10-19T18:33:42.248Z,99429.66
2022-10-19T18:36:10.817Z,99415.72
2022-10-19T18:38:38.517Z,99420.94
2022-10-19T18:41:08.130Z,99421.81
2022-10-19T18:43:34.735Z,99428.78
2022-10-19T18:46:01.517Z,99422.69
2022-10-19T18:48:29.350Z,99425.28
2022-10-19T18:50:57.115Z,99417.41
2022-10-19T18:53:24.015Z,99423.47
2022-10-19T18:56:02.220Z,99425.22
2022-10-19T18:58:31.000Z,99420.84
2022-10-19T19:01:08.277Z,99423.47
2022-10-19T19:03:36.255Z,99425.22
2022-10-19T19:06:05.865Z,99429.56
2022-10-19T19:08:32.814Z,99407.78
2022-10-19T19:11:12.957Z,99415.63
2022-10-19T19:13:40.327Z,99410.34
2022-10-19T19:16:08.327Z,99416.47
2022-10-19T19:18:35.583Z,99414.72
2022-10-19T19:21:03.749Z,99408.59
2022-10-19T19:23:31.088Z,99405.13
2022-10-19T19:25:57.582Z,99407.66
2022-10-19T19:28:24.153Z,99391.97
2022-10-19T19:30:50.652Z,99395.47
2022-10-19T19:33:17.123Z,99390.28
2022-10-19T19:35:44.928Z,99393.72
2022-10-19T19:38:12.214Z,99391.97
2022-10-19T19:40:44.219Z,99389.38
2022-10-19T19:43:11.743Z,99390.19
2022-10-19T19:45:38.894Z,99386.72
2022-10-19T19:48:06.478Z,99390.19
2022-10-19T19:50:33.997Z,99388.47
2022-10-19T19:53:00.842Z,99381.53
2022-10-19T19:55:27.925Z,99368.41
2022-10-19T19:57:55.379Z,99369.31
2022-10-19T20:00:23.258Z,99372.81
2022-10-19T20:02:57.095Z,99372.78
2022-10-19T20:05:24.464Z,99371.03
2022-10-19T20:07:51.084Z,99372.72
2022-10-19T20:10:18.144Z,99369.19
2022-10-19T20:12:46.353Z,99369.25
2022-10-19T20:15:15.396Z,99376.25
2022-10-19T20:17:42.308Z,99380.63
2022-10-19T20:20:09.944Z,99374.56
2022-10-19T20:22:36.539Z,99378.06
2022-10-19T20:25:04.131Z,99381.53
2022-10-19T20:27:30.949Z,99375.34
2022-10-19T20:29:59.966Z,99371.81
2022-10-19T20:32:27.311Z,99366.63
2022-10-19T20:34:54.173Z,99360.50
2022-10-19T20:37:21.131Z,99362.25
2022-10-19T20:39:48.741Z,99360.50
2022-10-19T20:42:17.534Z,99364.03
2022-10-19T20:44:45.146Z,99358.78
2022-10-19T20:47:12.055Z,99356.19
2022-10-19T20:49:38.684Z,99343.09
2022-10-19T20:52:05.221Z,99357.00
2022-10-19T20:54:31.890Z,99355.22
2022-10-19T20:56:58.920Z,99358.66
2022-10-19T20:59:30.381Z,99356.88
2022-10-19T21:01:57.729Z,99353.34
2022-10-19T21:04:25.569Z,99351.53
2022-10-19T21:06:53.089Z,99358.44
2022-10-19T21:09:22.386Z,99351.44
2022-10-19T21:11:50.591Z,99367.03
2022-10-19T21:14:28.450Z,99359.19
2022-10-19T21:16:57.757Z,99356.53
2022-10-19T21:19:26.103Z,99359.06
2022-10-19T21:21:55.689Z,99357.25
2022-10-19T21:24:24.846Z,99351.16
2022-10-19T21:29:22.961Z,99342.53
2022-10-19T21:31:52.156Z,99341.75
2022-10-19T21:34:22.622Z,99336.53
2022-10-19T21:36:49.797Z,99328.69
2022-10-19T21:39:17.144Z,99329.56
2022-10-19T21:41:44.131Z,99327.94
2022-10-19T21:44:10.923Z,99338.38
2022-10-19T21:46:37.513Z,99340.88
2022-10-19T21:49:04.105Z,99336.44
2022-10-19T21:51:33.622Z,99327.69
2022-10-19T21:54:02.955Z,99325.00
2022-10-19T21:56:29.666Z,99326.75
2022-10-19T21:58:56.294Z,99318.88
2022-10-19T22:01:26.608Z,99331.91
2022-10-19T22:04:01.344Z,99320.56
2022-10-19T22:06:29.933Z,99320.50
2022-10-19T22:08:57.544Z,99311.84
2022-10-19T22:11:25.066Z,99304.81
2022-10-19T22:14:00.130Z,99296.94
2022-10-19T22:16:27.976Z,99291.72
2022-10-19T22:18:55.133Z,99283.03
2022-10-19T22:21:25.407Z,99277.81
2022-10-19T22:24:10.957Z,99271.66
2022-10-19T22:26:40.783Z,99267.22
2022-10-19T22:29:08.016Z,99275.88
2022-10-19T22:31:36.025Z,99261.06
2022-10-19T22:34:06.213Z,99255.78
2022-10-19T22:36:32.654Z,99268.81
2022-10-19T22:38:59.101Z,99263.44
2022-10-19T22:41:25.675Z,99263.38
2022-10-19T22:43:52.155Z,99267.63
2022-10-19T22:46:18.868Z,99265.78
2022-10-19T22:48:45.481Z,99254.47
2022-10-19T22:51:12.043Z,99244.94
2022-10-19T22:53:38.581Z,99251.00
2022-10-19T22:56:05.803Z,99244.00
2022-10-19T22:58:32.431Z,99247.34
2022-10-19T23:01:19.377Z,99255.09
2022-10-19T23:03:45.870Z,99261.13
2022-10-19T23:06:14.177Z,99257.56
2022-10-19T23:08:41.035Z,99239.25
2022-10-19T23:11:07.592Z,99243.59
2022-10-19T23:13:34.171Z,99249.69
2022-10-19T23:16:00.770Z,99251.38
2022-10-19T23:18:30.035Z,99248.78
2022-10-19T23:20:59.514Z,99244.31
2022-10-19T23:23:26.587Z,99242.44
2022-10-19T23:26:08.598Z,99244.22
2022-10-19T23:28:37.767Z,99229.47
2022-10-19T23:31:06.719Z,99226.88
2022-10-19T23:33:33.766Z,99232.06
2022-10-19T23:36:12.885Z,99234.59
2022-10-19T23:38:39.346Z,99236.22
2022-10-19T23:41:06.081Z,99239.69
2022-10-19T23:43:32.716Z,99237.84
2022-10-19T23:45:59.750Z,99244.53
2022-10-19T23:48:26.305Z,99237.47
2022-10-19T23:51:07.947Z,99236.63
2022-10-19T23:53:39.981Z,99234.00
2022-10-19T23:56:12.119Z,99230.53
2022-10-19T23:58:38.696Z,99231.44
